Peshastin, WA (98847)

4:05 PM PDT on September 02, 2015 (GMT -0700)
Mountain Home Lodge Leavenworth, WA | | Change Station
CLOSE
Current Station
Personal Weather Station
Location: Leavenworth, WA
Elevation: 2044 ft
Nearby Weather Stations

Elev 2044 ft 47.57 °N, 120.65 °W | Updated 13 minutes ago

Partly Cloudy
Partly Cloudy
66.1 °F
Feels Like 66.1 °F
N
0.0
Wind Variable Wind from WSW

Today
High -- | Low -- °F
--% Chance of Precip.
Yesterday
High -- | Low -- °F
Precip. -- in
6:22 AM 7:41 PM
Waning Gibbous, 76% visible
Pressure 29.78 in
Visibility 10.0 miles
Clouds Clear
Dew Point 28 °F
Humidity 24%
Rainfall 0.00 in
Snow Depth Not available.
UV 4 out of 12
Pollen 4.10 out of 12
Air Quality Not available.
Flu Activity Not available.
METAR KEAT 022255Z AUTO 28010KT 240V320 10SM CLR 23/M02 A2980 RMK AO2 SLP083 T02281017
Pressure 29.78 in
Visibility 10.0 miles
Clouds Clear
Dew Point 28 °F
Humidity 24%
Rainfall 0.00 in
Snow Depth Not available.
UV 4 out of 12
Pollen 4.10 out of 12
Air Quality Not available.
Flu Activity Not available.
METAR KEAT 022255Z AUTO 28010KT 240V320 10SM CLR 23/M02 A2980 RMK AO2 SLP083 T02281017

10-Day Weather Forecast

×

Almanac

Astronomy

Sep. 02, 2015 Rise Set
Actual Time
Civil Twilight
Nautical Twilight
Astronomical Twilight
Moon
Length of Visible Light
Length of Day
Tomorrow will be .
, % of the Moon is Illuminated

Today's Extremes

State Highs State Lows

Community

WunderPhotos

Upload Photos

1,851,821 photos uploaded!

WunderBlogs® & News

Nearby

Air Quality

  Air Quality AQ Index Pollutant
Not available.

Snow Depth

Station Depth Elevation

Earthquake Activity

City Distance Mag. Time & Date
Minimum magnitude displayed is 2.5.

Coastal Water Temperatures

Place Temperature

Stations

Nearby Weather Stations

Station Location Temp. Windchill Dew Point Humidity Wind Precip. Elev Updated Type